新千歳空港の過去48時間の天気

新千歳空港 (Sapporo/New Chitose)

現在時刻: 12/15 21:54 JST (12/15 12:54 UTC) 以下の時間は現地時間です。

過去48時間のMETAR気象情報
時間 風向 風速(m/s) 視程 気温(℃) 湿度(%) 気圧(hPa) 天気現象
15 21:30 2 10km以上 -4 80 1023
15 21:00 南南東 2 10km以上 -4 80 1023
15 20:30 南東 1 10km以上 -4 80 1023
15 20:00 2 10km以上 -3 74 1023
15 19:30 南南東 2 10km以上 -5 79 1023
15 19:00 不定 1 10km以上 -5 79 1023
15 18:30 不定 1 10km以上 -3 68 1023
15 18:00 不定 1 10km以上 -1 59 1023
15 17:30 不定 1 10km以上 -4 80 1023
15 17:00 2 10km以上 -2 59 1023
15 16:30 南東 2 10km以上 -1 59 1022
15 16:00 東南東 2 10km以上 -1 59 1023
15 15:30 東南東 2 10km以上 -2 59 1022
15 15:00 東南東 2 10km以上 -1 50 1022
15 14:30 北東 2 10km以上 0 47 1022
15 14:00 不定 1 10km以上 -1 55 1022
15 13:30 2 10km以上 -1 50 1022
15 13:00 2 10km以上 -1 50 1022
15 12:30 南東 2 10km以上 -1 50 1022
15 12:00 不定 1 10km以上 -1 50 1022
15 11:30 南東 1 10km以上 -1 50 1023
15 11:00 南南東 1 10km以上 -2 59 1023
15 10:30 2 10km以上 -3 68 1023
15 10:00 2 10km以上 -4 86 1024
15 09:30 不定 1 10km以上 -6 86 1024
15 09:00 南南東 2 10km以上 -8 93 1024
15 08:30 1 10km以上 -8 93 1024
15 08:00 静穏 0 10km以上 -11 92 1024
15 07:30 不定 1 10km以上 -10 92 1024
15 07:00 不定 1 10km以上 -10 85 1023
15 06:30 不定 1 10km以上 -9 92 1023
15 06:00 南西 1 10km以上 -9 92 1023
15 05:30 不定 1 10km以上 -8 93 1023 弱いしゅう雪
15 05:00 北北西 1 8000m -9 92 1023 弱いしゅう雪
15 04:30 西南西 1 10km以上 -9 85 1023 弱いしゅう雪
15 04:00 1 10km以上 -11 92 1022
15 03:30 不定 1 10km以上 -12 85 1022
15 03:00 不定 1 10km以上 -11 92 1022 弱いしゅう雪
15 02:30 北北東 1 10km以上 -12 85 1022 弱いしゅう雪
15 02:00 2 10km以上 -11 85 1022 弱いしゅう雪
15 01:30 北西 3 10km以上 -13 85 1022 弱いしゅう雪
15 01:00 1 10km以上 -12 92 1022
15 00:30 静穏 0 10km以上 -11 92 1022
15 00:00 不定 1 10km以上 -11 92 1022
14 23:30 不定 1 10km以上 -9 92 1022
14 23:00 不定 1 10km以上 -8 86 1022
14 22:30 西北西 3 10km以上 -8 93 1021
14 22:00 北北西 3 10km以上 -9 92 1021
14 21:30 2 10km以上 -8 93 1021
14 21:00 2 10km以上 -7 79 1021
14 20:30 2 10km以上 -4 86 1021
14 20:00 北北西 2 10km以上 -4 86 1021
14 19:30 北北西 3 10km以上 -5 86 1021
14 19:00 5 10km以上 -5 86 1020
14 18:30 6 10km以上 -4 86 1020
14 18:00 6 10km以上 -4 86 1020 弱いしゅう雪
14 17:30 8 4900m -3 86 1020 弱いしゅう雪
14 17:08 8 5000m -3 86 1019 弱いしゅう雪
14 17:00 北北西 7 1800m -3 93 1019 弱いしゅう雪
14 16:40 7 1400m -3 93 1019 弱いしゅう雪
14 16:00 7 5000m -3 86 1019 弱いしゅう雪
14 15:45 北北西 6 3200m -2 86 1019 弱いしゅう雪
14 15:30 北北西 5 1600m -2 86 1019 弱いしゅう雪
14 15:18 北北西 5 900m -2 86 1019 しゅう雪
14 15:00 北北西 8 3500m -2 86 1018 弱いしゅう雪
14 14:41 北北西 7 900m -2 86 1018 しゅう雪
14 14:30 北北西 7 1400m -2 93 1018 弱いしゅう雪
14 14:15 北北西 5 800m -2 86 1018 しゅう雪
14 14:12 北北西 5 3100m -2 86 1018 弱いしゅう雪
14 14:00 北北西 5 3500m -2 86 1018 弱いしゅう雪
14 13:49 北北西 6 1600m -2 86 1018 弱いしゅう雪
14 13:30 北西 5 800m -2 93 1018 しゅう雪
14 13:13 7 500m -2 93 1018 しゅう雪
14 13:03 北北西 5 900m -2 86 1017 しゅう雪
14 12:30 北北西 4 3000m -1 74 1017 弱いしゅう雪
14 12:16 北北西 6 4900m 0 64 1017 弱いしゅう雪
14 12:00 4 10km以上 0 55 1017 弱いしゅう雪
14 11:30 北北西 4 10km以上 0 59 1017
14 11:00 2 10km以上 0 55 1017
14 10:30 不定 1 10km以上 -2 74 1017
14 10:00 北北東 3 10km以上 -1 69 1018
14 09:30 4 10km以上 -2 80 1018
14 09:00 3 10km以上 -3 86 1018
14 08:30 2 10km以上 -4 93 1018
14 08:00 4 10km以上 -5 93 1017
14 07:41 4 3200m -4 93 1017 弱いしゅう雪
14 07:30 3 1600m -5 93 1017 弱いしゅう雪
14 07:20 2 2300m -6 93 1017 弱いしゅう雪
14 07:00 不定 1 3200m -6 86 1017 弱いしゅう雪
14 06:37 3 1400m -7 93 1017 弱いしゅう雪
14 06:00 3 10km以上 -8 86 1016
14 05:30 北北西 4 10km以上 -9 85 1015
14 05:00 3 10km以上 -8 86 1015
14 04:30 2 10km以上 -8 86 1015
14 04:00 不定 1 10km以上 -8 86 1015
14 03:30 北北西 2 10km以上 -8 86 1015
14 03:00 不定 1 10km以上 -8 86 1015
14 02:30 北西 2 10km以上 -9 92 1015
14 02:00 2 10km以上 -8 86 1015
14 01:30 北東 2 10km以上 -9 92 1015
14 01:00 北西 2 10km以上 -9 85 1015
14 00:30 2 10km以上 -9 85 1015
14 00:00 北北西 2 10km以上 -8 86 1015
13 23:30 北北西 1 10km以上 -9 85 1016
13 23:00 不定 1 10km以上 -8 86 1016
13 22:30 不定 1 10km以上 -7 79 1016
13 22:00 2 10km以上 -6 73 1016 弱いしゅう雪
RJCC 151230Z 10003KT 060V120 9999 FEW020 BKN040 M04/M07 Q1023 RMK 1CU020 7CU040 A3023
RJCC 151200Z 16003KT 9999 FEW020 BKN040 M04/M07 Q1023 RMK 1CU020 7CU040 A3023
RJCC 151130Z 14002KT 9999 FEW020 BKN040 M04/M07 Q1023 RMK 1CU020 7CU040 A3023
RJCC 151100Z 10003KT 9999 FEW020 BKN045 M03/M07 Q1023 RMK 1CU020 7CU045 A3023
RJCC 151030Z 15003KT 9999 FEW020 BKN045 M05/M08 Q1023 RMK 1CU020 7CU045 A3023
RJCC 151000Z VRB02KT 9999 FEW020 BKN050 M05/M08 Q1023 RMK 1CU020 6CU050 A3023
RJCC 150930Z VRB02KT 9999 FEW020 BKN050 M03/M08 Q1023 RMK 1CU020 6CU050 A3023
RJCC 150900Z VRB02KT 9999 FEW030 BKN050 M01/M08 Q1023 RMK 1CU030 7CU050 A3022
RJCC 150830Z VRB02KT 9999 FEW030 BKN050 M04/M07 Q1023 RMK 1CU030 7CU050 A3022
RJCC 150800Z 17003KT 9999 FEW030 SCT050 M02/M09 Q1023 RMK 1CU030 4CU050 A3021
RJCC 150730Z 14003KT 9999 FEW030 SCT050 M01/M08 Q1022 RMK 1CU030 3CU050 A3021
RJCC 150700Z 11003KT 9999 FEW030 BKN050 M01/M08 Q1023 RMK 1CU030 7CU050 A3021
RJCC 150630Z 11003KT 9999 FEW030 BKN050 M02/M09 Q1022 RMK 1CU030 6CU050 A3021
RJCC 150600Z 11004KT 9999 FEW030 BKN050 M01/M10 Q1022 RMK 1CU030 5CU050 A3020
RJCC 150530Z 04003KT 360V070 9999 FEW030 SCT050 M00/M10 Q1022 RMK 1CU030 4CU050 A3019
RJCC 150500Z VRB02KT 9999 FEW030 SCT050 M01/M09 Q1022 RMK 1CU030 3CU050 A3019
RJCC 150430Z 08003KT 040V120 9999 FEW030 BKN050 M01/M10 Q1022 RMK 1CU030 5CU050 A3018
RJCC 150400Z 08003KT 050V120 9999 FEW030 SCT050 M01/M10 Q1022 RMK 1CU030 3CU050 A3019
RJCC 150330Z 14003KT 110V190 9999 FEW030 M01/M10 Q1022 RMK 1CU030 A3019
RJCC 150300Z VRB02KT 9999 FEW030 SCT040 M01/M10 Q1022 RMK 1CU030 3CU040 A3021
RJCC 150230Z 14002KT 9999 FEW030 M01/M10 Q1023 RMK 1CU030 A3021
RJCC 150200Z 16002KT 9999 FEW030 M02/M09 Q1023 RMK 1CU030 A3022
RJCC 150130Z 17004KT 9999 FEW030 M03/M08 Q1023 RMK 1CU030 A3023
RJCC 150100Z 19004KT 150V250 9999 FEW030 M04/M06 Q1024 RMK 1CU030 A3024
RJCC 150030Z VRB01KT 9999 FEW020 M06/M08 Q1024 RMK 1CU020 A3025
RJCC 150000Z 15003KT 9999 FEW020 M08/M09 Q1024 RMK 1CU020 A3025
RJCC 142330Z 01002KT 9999 FEW020 SCT040 M08/M09 Q1024 RMK 1CU020 3CU040 A3025
RJCC 142300Z 00000KT 9999 FEW015 M11/M12 Q1024 RMK 1ST015 A3025
RJCC 142230Z VRB01KT 9999 FEW010 SCT040 M10/M11 Q1024 RMK 1ST010 3CU040 A3024
RJCC 142200Z VRB01KT 9999 FEW010 SCT040 M10/M12 Q1023 RMK 1ST010 4CU040 A3023
RJCC 142130Z VRB02KT 9999 FEW005 SCT040 BKN050 M09/M10 Q1023 RMK 1ST005 3CU040 6CU050 A3023
RJCC 142100Z 22002KT 9999 FEW005 SCT030 BKN040 M09/M10 Q1023 RMK 1ST005 3CU030 6CU040 A3022
RJCC 142030Z VRB01KT 9999 -SHSN FEW005 SCT030 BKN040 M08/M09 Q1023 RMK 1ST005 3CU030 6CU040 A3021
RJCC 142000Z 33002KT 8000 -SHSN FEW005 SCT030 BKN040 M09/M10 Q1023 RMK 1ST005 3CU030 6CU040 A3021
RJCC 141930Z 24002KT 9999 -SHSN FEW005 SCT030 BKN060 M09/M11 Q1023 RMK 1ST005 3CU030 6CU060 A3021
RJCC 141900Z 17002KT 9999 FEW005 BKN060 M11/M12 Q1022 RMK 1ST005 5CU060 A3021
RJCC 141830Z VRB01KT 9999 FEW005 BKN060 M12/M14 Q1022 RMK 1ST005 5CU060 A3020
RJCC 141800Z VRB02KT 9999 -SHSN FEW005 SCT040 BKN060 M11/M12 Q1022 RMK 1ST005 3CU040 5CU060 A3020
RJCC 141730Z 02001KT 9999 -SHSN FEW005 BKN050 M12/M14 Q1022 RMK 1ST005 5CU050 A3020
RJCC 141700Z 35004KT 9999 -SHSN FEW005 BKN050 M11/M13 Q1022 RMK 1ST005 5CU050 A3020
RJCC 141630Z 32005KT 9999 -SHSN FEW005 BKN060 M13/M15 Q1022 RMK 1ST005 6CU060 A3020
RJCC 141600Z 01001KT 9999 FEW005 M12/M13 Q1022 RMK 1ST005 A3020
RJCC 141530Z 00000KT 9999 FEW005 M11/M12 Q1022 RMK 1ST005 A3019
RJCC 141500Z VRB02KT 9999 FEW005 M11/M12 Q1022 RMK 1ST005 A3019
RJCC 141430Z VRB01KT 9999 FEW005 BKN040 M09/M10 Q1022 RMK 1ST005 5CU040 A3018
RJCC 141400Z VRB01KT 9999 FEW005 BKN060 M08/M10 Q1022 RMK 1ST005 5CU060 A3018
RJCC 141330Z 30005KT 9999 FEW005 BKN060 M08/M09 Q1021 RMK 1ST005 5CU060 A3017
RJCC 141300Z 34005KT 9999 FEW005 SCT060 M09/M10 Q1021 RMK 1ST005 4CU060 A3017
RJCC 141230Z 36004KT 9999 FEW005 SCT060 M08/M09 Q1021 RMK 1ST005 4CU060 A3017
RJCC 141200Z 35004KT 9999 FEW005 BKN060 M07/M10 Q1021 RMK 1ST005 6CU060 A3017
RJCC 141130Z 01003KT 9999 FEW005 SCT040 M04/M06 Q1021 RMK 1ST005 3CU040 A3016
RJCC 141100Z 33004KT 9999 FEW005 M04/M06 Q1021 RMK 1ST005 A3016
RJCC 141030Z 34006KT 9999 FEW005 M05/M07 Q1021 RMK 1ST005 A3015
RJCC 141000Z 36009KT 9999 FEW005 SCT080 M05/M07 Q1020 RMK 1ST005 3AC080 A3014
RJCC 140930Z 35011KT 9999 FEW005 SCT060 M04/M06 Q1020 RMK 1ST005 3CU060 A3013
RJCC 140900Z 35012KT 9999 -SHSN FEW005 BKN050 M04/M06 Q1020 RMK 1ST005 5CU050 A3013
RJCC 140830Z 35015KT 4900 -SHSN FEW005 SCT008 BKN030 M03/M05 Q1020 RMK 1ST005 3ST008 5CU030 A3012
RJCC 140808Z 35015KT 5000 -SHSN FEW005 SCT008 BKN030 M03/M05 Q1019 RMK 1ST005 3ST008 5CU030 A3012
RJCC 140800Z 34014KT 1800 -SHSN FEW005 BKN008 BKN010 M03/M04 Q1019 RMK 1ST005 5ST008 6ST010 A3012
RJCC 140740Z 35014KT 1400 R01L/P2000N R01R/P2000N -SHSN FEW005 BKN008 BKN010 M03/M04 Q1019 RMK 1ST005 5ST008 7ST010 A3012
RJCC 140700Z 35013KT 5000 -SHSN FEW005 SCT030 M03/M05 Q1019 RMK 1ST005 3CU030 A3010 9999W
RJCC 140645Z 34011KT 3200 R01L/P2000N R01R/P2000N -SHSN FEW005 SCT008 BKN030 M02/M04 Q1019 RMK 1ST005 4ST008 5CU030 A3010 9999SW-W
RJCC 140630Z 33009KT 1600 R01L/P2000N R01R/P2000N -SHSN FEW005 BKN008 BKN010 M02/M04 Q1019
RJCC 140618Z 34010KT 0900 R01L/P2000N R01R/P2000N SHSN VV009 M02/M04 Q1019 RMK A3009
RJCC 140600Z 34015KT 3500 -SHSN FEW005 SCT030 M02/M04 Q1018 RMK 1ST005 3CU030 A3009 9999W
RJCC 140541Z 34014KT 0900 R01L/P2000N R01R/P2000N SHSN VV009 M02/M04 Q1018 RMK A3008
RJCC 140530Z 34013KT 1400 R01L/2000N R01R/2000N -SHSN FEW003 SCT008 BKN012 M02/M03 Q1018
RJCC 140515Z 34009KT 0800 R01L/P2000N R01R/P2000N SHSN VV008 M02/M04 Q1018 RMK A3007
RJCC 140512Z 34010KT 3100 R01L/P2000N R01R/P2000N -SHSN FEW005 BKN015 M02/M04 Q1018 RMK 1ST005 7ST015 A3007 1000W
RJCC 140500Z 33010KT 3500 -SHSN FEW005 SCT010 BKN030 M02/M04 Q1018 RMK 1ST005 3ST010 6CU030 A3006 9999S
RJCC 140449Z 33012KT 1600 R01L/1000VP2000U R01R/1400VP2000U -SHSN FEW003 SCT006 BKN010 M02/M04 Q1018 RMK 1ST003 3ST006 5ST010 A3006 9999W
RJCC 140430Z 32010KT 0800 R01L/1500VP2000U R01R/2000N SHSN VV006 M02/M03 Q1018
RJCC 140413Z 35014KT 0500 R01L/1000V1800D R01R/1400VP2000D SHSN VV005 M02/M03 Q1018 RMK A3006
RJCC 140403Z 33010KT 0900 R01L/1200VP2000D R01R/P2000N SHSN VV008 M02/M04 Q1017 RMK A3005
RJCC 140330Z 34008KT 3000 -SHSN FEW010 BKN030 BKN040 M01/M05 Q1017 RMK 1ST010 5CU030 7CU040 A3005
RJCC 140316Z 33011KT 4900 -SHSN FEW010 SCT030 BKN040 M00/M06 Q1017 RMK 1ST010 3CU030 7CU040 A3005 9999SE-SW
RJCC 140300Z 35007KT 9999 -SHSN FEW010 SCT030 BKN045 00/M08 Q1017 RMK 1ST010 3CU030 7CU045 A3005
RJCC 140230Z 33007KT 9999 FEW015 SCT045 M00/M07 Q1017 RMK 1ST015 4CU045 A3005
RJCC 140200Z 36004KT 320V070 9999 FEW015 M00/M08 Q1017 RMK 1ST015 A3005
RJCC 140130Z VRB02KT 9999 FEW010 M02/M06 Q1017 RMK 1ST010 A3006
RJCC 140100Z 03006KT 350V050 9999 FEW008 M01/M06 Q1018 RMK 1ST008 A3006
RJCC 140030Z 01007KT 9999 FEW005 SCT100 M02/M05 Q1018 RMK 1ST005 3AC100 A3006
RJCC 140000Z 01006KT 9999 FEW008 BKN090 M03/M05 Q1018 RMK 1ST008 6AC090 A3006
RJCC 132330Z 01004KT 9999 FEW006 BKN110 M04/M05 Q1018 RMK 1ST006 7AC110 A3006
RJCC 132300Z 36007KT 9999 FEW006 BKN060 BKN110 M05/M06 Q1017 RMK 2ST006 5CU060 6AC110 A3005
RJCC 132241Z 01007KT 3200 -SHSN FEW010 SCT020 BKN040 M04/M05 Q1017 RMK 1ST010 3CU020 5CU040 A3004 9999W-NW
RJCC 132230Z 35006KT 1600 R01L/P2000N R01R/P2000N -SHSN FEW006 BKN020 BKN045 M05/M06 Q1017
RJCC 132220Z 35004KT 2300 -SHSN FEW010 BKN045 M06/M07 Q1017 RMK 1ST010 6CU045 A3004
RJCC 132200Z VRB02KT 3200 -SHSN FEW005 SCT010 BKN045 M06/M08 Q1017 RMK 1ST005 3ST010 5CU045 A3004
RJCC 132137Z 35005KT 1400 R01L/P2000N R01R/P2000N -SHSN FEW008 SCT015 BKN025 M07/M08 Q1017 RMK 1ST008 3ST015 5CU025 A3003
RJCC 132100Z 35005KT 9999 FEW030 SCT050 BKN080 M08/M10 Q1016 RMK 1CU030 3CU050 5AC080 A3001
RJCC 132030Z 34007KT 9999 FEW030 SCT080 M09/M11 Q1015 RMK 1CU030 4AC080 A3000
RJCC 132000Z 35005KT 9999 FEW030 BKN080 M08/M10 Q1015 RMK 1CU030 5AC080 A2999
RJCC 131930Z 35004KT 9999 FEW025 BKN080 M08/M10 Q1015 RMK 1CU025 6AC080 A3000
RJCC 131900Z VRB01KT 9999 FEW025 BKN120 M08/M10 Q1015 RMK 1CU025 6AC120 A3000
RJCC 131830Z 33003KT 9999 FEW025 BKN120 M08/M10 Q1015 RMK 1CU025 6AC120 A3000
RJCC 131800Z VRB01KT 9999 FEW025 BKN120 M08/M10 Q1015 RMK 1CU025 6AC120 A3000
RJCC 131730Z 32003KT 9999 FEW025 SCT060 BKN130 M09/M10 Q1015 RMK 1CU025 3CU060 6AC130 A2999
RJCC 131700Z 35004KT 320V020 9999 FEW025 SCT060 BKN130 M08/M10 Q1015 RMK 1CU025 3CU060 6AC130 A2999
RJCC 131630Z 04003KT 9999 FEW025 BKN140 M09/M10 Q1015 RMK 1CU025 6AC140 A3000
RJCC 131600Z 32004KT 9999 FEW025 BKN150 M09/M11 Q1015 RMK 1CU025 6AC150 A3000
RJCC 131530Z 35003KT 9999 FEW025 BKN070 BKN160 M09/M11 Q1015 RMK 1CU025 5AC070 6AC160 A2999
RJCC 131500Z 34003KT 9999 FEW025 BKN070 BKN160 M08/M10 Q1015 RMK 1CU025 5AC070 6AC160 A3000
RJCC 131430Z 33002KT 9999 FEW025 SCT150 M09/M11 Q1016 RMK 1CU025 4AC150 A3000
RJCC 131400Z VRB01KT 9999 FEW025 SCT160 M08/M10 Q1016 RMK 1CU025 3AC160 A3001
RJCC 131330Z VRB02KT 9999 FEW020 SCT030 M07/M10 Q1016 RMK 1CU020 4CU030 A3002
RJCC 131300Z 09003KT 9999 -SHSN FEW020 SCT030 M06/M10 Q1016 RMK 1CU020 4CU030 A3002